sensor_id;sensor_type;location;lat;lon;timestamp;P1;durP1;ratioP1;P2;durP2;ratioP2
51995;SDS011;38010;53.264;6.592;2023-03-01T00:01:29;0.70;;;0.70;;
51995;SDS011;38010;53.264;6.592;2023-03-01T00:03:55;1.00;;;0.70;;
51995;SDS011;38010;53.264;6.592;2023-03-01T00:06:22;0.95;;;0.80;;
51995;SDS011;38010;53.264;6.592;2023-03-01T00:08:48;1.00;;;0.90;;
51995;SDS011;38010;53.264;6.592;2023-03-01T00:11:15;1.00;;;0.90;;
51995;SDS011;38010;53.264;6.592;2023-03-01T00:13:44;0.93;;;0.80;;
51995;SDS011;38010;53.264;6.592;2023-03-01T00:16:13;0.85;;;0.80;;
51995;SDS011;38010;53.264;6.592;2023-03-01T00:18:41;0.80;;;0.80;;
51995;SDS011;38010;53.264;6.592;2023-03-01T00:21:07;0.80;;;0.80;;
51995;SDS011;38010;53.264;6.592;2023-03-01T00:23:33;1.10;;;0.80;;
51995;SDS011;38010;53.264;6.592;2023-03-01T00:26:00;1.00;;;0.90;;
51995;SDS011;38010;53.264;6.592;2023-03-01T00:28:26;0.70;;;0.70;;
51995;SDS011;38010;53.264;6.592;2023-03-01T00:30:51;1.05;;;0.95;;
51995;SDS011;38010;53.264;6.592;2023-03-01T00:33:17;1.10;;;1.00;;
51995;SDS011;38010;53.264;6.592;2023-03-01T00:35:43;0.70;;;0.70;;
51995;SDS011;38010;53.264;6.592;2023-03-01T00:38:09;1.00;;;0.77;;
51995;SDS011;38010;53.264;6.592;2023-03-01T00:40:35;1.02;;;0.90;;
51995;SDS011;38010;53.264;6.592;2023-03-01T00:43:01;0.95;;;0.73;;
51995;SDS011;38010;53.264;6.592;2023-03-01T00:45:28;0.80;;;0.80;;
51995;SDS011;38010;53.264;6.592;2023-03-01T00:47:56;0.80;;;0.80;;
51995;SDS011;38010;53.264;6.592;2023-03-01T00:50:22;1.25;;;0.98;;
51995;SDS011;38010;53.264;6.592;2023-03-01T00:52:52;0.82;;;0.80;;
51995;SDS011;38010;53.264;6.592;2023-03-01T00:55:19;1.10;;;0.82;;
51995;SDS011;38010;53.264;6.592;2023-03-01T00:57:45;1.10;;;0.80;;
51995;SDS011;38010;53.264;6.592;2023-03-01T01:00:11;0.80;;;0.73;;
51995;SDS011;38010;53.264;6.592;2023-03-01T01:02:39;1.10;;;1.00;;
51995;SDS011;38010;53.264;6.592;2023-03-01T01:05:05;1.33;;;0.93;;
51995;SDS011;38010;53.264;6.592;2023-03-01T01:07:32;0.80;;;0.80;;
51995;SDS011;38010;53.264;6.592;2023-03-01T01:09:58;0.95;;;0.80;;
51995;SDS011;38010;53.264;6.592;2023-03-01T01:12:23;1.10;;;0.90;;
51995;SDS011;38010;53.264;6.592;2023-03-01T01:14:49;1.10;;;0.98;;
51995;SDS011;38010;53.264;6.592;2023-03-01T01:17:15;0.95;;;0.85;;
51995;SDS011;38010;53.264;6.592;2023-03-01T01:19:40;0.93;;;0.82;;
51995;SDS011;38010;53.264;6.592;2023-03-01T01:22:06;1.58;;;1.10;;
51995;SDS011;38010;53.264;6.592;2023-03-01T01:24:32;0.95;;;0.70;;
51995;SDS011;38010;53.264;6.592;2023-03-01T01:26:58;1.08;;;0.90;;
51995;SDS011;38010;53.264;6.592;2023-03-01T01:29:23;1.00;;;0.90;;
51995;SDS011;38010;53.264;6.592;2023-03-01T01:31:49;1.30;;;0.98;;
51995;SDS011;38010;53.264;6.592;2023-03-01T01:34:16;1.00;;;0.80;;
51995;SDS011;38010;53.264;6.592;2023-03-01T01:36:44;0.98;;;0.90;;
51995;SDS011;38010;53.264;6.592;2023-03-01T01:39:13;1.17;;;1.08;;
51995;SDS011;38010;53.264;6.592;2023-03-01T01:41:40;1.50;;;1.00;;
51995;SDS011;38010;53.264;6.592;2023-03-01T01:54:57;1.10;;;0.90;;
51995;SDS011;38010;53.264;6.592;2023-03-01T01:57:40;0.93;;;0.85;;
51995;SDS011;38010;53.264;6.592;2023-03-01T02:00:12;0.80;;;0.80;;
51995;SDS011;38010;53.264;6.592;2023-03-01T02:02:40;1.00;;;0.90;;
51995;SDS011;38010;53.264;6.592;2023-03-01T02:07:43;0.70;;;0.70;;
51995;SDS011;38010;53.264;6.592;2023-03-01T02:10:10;0.93;;;0.90;;
51995;SDS011;38010;53.264;6.592;2023-03-01T02:12:36;1.00;;;0.90;;
51995;SDS011;38010;53.264;6.592;2023-03-01T02:15:03;0.90;;;0.80;;
51995;SDS011;38010;53.264;6.592;2023-03-01T02:17:30;0.70;;;0.70;;
51995;SDS011;38010;53.264;6.592;2023-03-01T02:20:05;1.20;;;1.05;;
51995;SDS011;38010;53.264;6.592;2023-03-01T02:22:33;0.60;;;0.60;;
51995;SDS011;38010;53.264;6.592;2023-03-01T02:30:22;0.60;;;0.60;;
51995;SDS011;38010;53.264;6.592;2023-03-01T02:32:51;1.02;;;0.88;;
51995;SDS011;38010;53.264;6.592;2023-03-01T02:35:17;0.82;;;0.82;;
51995;SDS011;38010;53.264;6.592;2023-03-01T02:37:44;0.70;;;0.70;;
51995;SDS011;38010;53.264;6.592;2023-03-01T02:40:17;0.63;;;0.63;;
51995;SDS011;38010;53.264;6.592;2023-03-01T02:45:09;0.80;;;0.73;;
51995;SDS011;38010;53.264;6.592;2023-03-01T02:47:35;0.63;;;0.63;;
51995;SDS011;38010;53.264;6.592;2023-03-01T02:50:02;0.80;;;0.73;;
51995;SDS011;38010;53.264;6.592;2023-03-01T02:55:22;0.90;;;0.80;;
51995;SDS011;38010;53.264;6.592;2023-03-01T02:57:48;0.77;;;0.77;;
51995;SDS011;38010;53.264;6.592;2023-03-01T03:00:20;0.90;;;0.80;;
51995;SDS011;38010;53.264;6.592;2023-03-01T03:02:51;0.75;;;0.75;;
51995;SDS011;38010;53.264;6.592;2023-03-01T03:05:19;0.70;;;0.70;;
51995;SDS011;38010;53.264;6.592;2023-03-01T03:07:47;0.85;;;0.70;;
51995;SDS011;38010;53.264;6.592;2023-03-01T03:10:15;1.10;;;0.88;;
51995;SDS011;38010;53.264;6.592;2023-03-01T03:12:49;0.82;;;0.80;;
51995;SDS011;38010;53.264;6.592;2023-03-01T03:15:26;0.70;;;0.70;;
51995;SDS011;38010;53.264;6.592;2023-03-01T03:17:54;0.63;;;0.60;;
51995;SDS011;38010;53.264;6.592;2023-03-01T03:20:20;1.33;;;0.80;;
51995;SDS011;38010;53.264;6.592;2023-03-01T03:22:52;0.70;;;0.70;;
51995;SDS011;38010;53.264;6.592;2023-03-01T03:25:19;0.70;;;0.70;;
51995;SDS011;38010;53.264;6.592;2023-03-01T03:27:47;0.75;;;0.75;;
51995;SDS011;38010;53.264;6.592;2023-03-01T03:30:15;0.65;;;0.65;;
51995;SDS011;38010;53.264;6.592;2023-03-01T03:32:44;0.68;;;0.68;;
51995;SDS011;38010;53.264;6.592;2023-03-01T03:35:21;0.70;;;0.70;;
51995;SDS011;38010;53.264;6.592;2023-03-01T03:37:58;0.70;;;0.70;;
51995;SDS011;38010;53.264;6.592;2023-03-01T03:40:33;0.88;;;0.80;;
51995;SDS011;38010;53.264;6.592;2023-03-01T03:42:59;0.70;;;0.70;;
51995;SDS011;38010;53.264;6.592;2023-03-01T03:45:25;0.85;;;0.85;;
51995;SDS011;38010;53.264;6.592;2023-03-01T03:47:51;0.65;;;0.65;;
51995;SDS011;38010;53.264;6.592;2023-03-01T03:50:17;0.73;;;0.73;;
51995;SDS011;38010;53.264;6.592;2023-03-01T03:52:43;0.77;;;0.70;;
51995;SDS011;38010;53.264;6.592;2023-03-01T03:55:09;0.82;;;0.80;;
51995;SDS011;38010;53.264;6.592;2023-03-01T03:57:37;0.70;;;0.70;;
51995;SDS011;38010;53.264;6.592;2023-03-01T04:00:04;0.70;;;0.70;;
51995;SDS011;38010;53.264;6.592;2023-03-01T04:02:38;0.80;;;0.80;;
51995;SDS011;38010;53.264;6.592;2023-03-01T04:05:04;0.80;;;0.80;;
51995;SDS011;38010;53.264;6.592;2023-03-01T04:07:30;0.95;;;0.70;;
51995;SDS011;38010;53.264;6.592;2023-03-01T04:09:56;0.85;;;0.80;;
51995;SDS011;38010;53.264;6.592;2023-03-01T04:12:22;0.80;;;0.80;;
51995;SDS011;38010;53.264;6.592;2023-03-01T04:14:48;0.60;;;0.60;;
51995;SDS011;38010;53.264;6.592;2023-03-01T04:17:14;0.70;;;0.70;;
51995;SDS011;38010;53.264;6.592;2023-03-01T04:19:39;0.60;;;0.60;;
51995;SDS011;38010;53.264;6.592;2023-03-01T04:22:05;0.82;;;0.70;;
51995;SDS011;38010;53.264;6.592;2023-03-01T04:24:37;0.80;;;0.70;;
51995;SDS011;38010;53.264;6.592;2023-03-01T04:27:03;0.77;;;0.70;;
51995;SDS011;38010;53.264;6.592;2023-03-01T04:29:29;1.10;;;0.90;;
51995;SDS011;38010;53.264;6.592;2023-03-01T04:31:54;0.65;;;0.65;;
51995;SDS011;38010;53.264;6.592;2023-03-01T04:34:20;0.70;;;0.70;;
51995;SDS011;38010;53.264;6.592;2023-03-01T04:36:46;1.08;;;0.98;;
51995;SDS011;38010;53.264;6.592;2023-03-01T04:39:11;0.80;;;0.80;;
51995;SDS011;38010;53.264;6.592;2023-03-01T04:41:37;1.00;;;0.90;;
51995;SDS011;38010;53.264;6.592;2023-03-01T04:44:04;0.82;;;0.80;;
51995;SDS011;38010;53.264;6.592;2023-03-01T04:46:34;0.60;;;0.60;;
51995;SDS011;38010;53.264;6.592;2023-03-01T04:49:00;1.10;;;0.82;;
51995;SDS011;38010;53.264;6.592;2023-03-01T04:51:26;0.80;;;0.80;;
51995;SDS011;38010;53.264;6.592;2023-03-01T04:53:52;0.80;;;0.80;;
51995;SDS011;38010;53.264;6.592;2023-03-01T04:56:18;0.73;;;0.73;;
51995;SDS011;38010;53.264;6.592;2023-03-01T04:58:44;0.93;;;0.90;;
51995;SDS011;38010;53.264;6.592;2023-03-01T05:01:11;0.77;;;0.77;;
51995;SDS011;38010;53.264;6.592;2023-03-01T05:03:45;0.80;;;0.80;;
51995;SDS011;38010;53.264;6.592;2023-03-01T05:06:13;1.20;;;1.10;;
51995;SDS011;38010;53.264;6.592;2023-03-01T05:08:39;1.10;;;1.00;;
51995;SDS011;38010;53.264;6.592;2023-03-01T05:11:06;0.85;;;0.82;;
51995;SDS011;38010;53.264;6.592;2023-03-01T05:13:34;1.00;;;0.90;;
51995;SDS011;38010;53.264;6.592;2023-03-01T05:16:01;1.08;;;0.80;;
51995;SDS011;38010;53.264;6.592;2023-03-01T05:18:30;1.00;;;0.93;;
51995;SDS011;38010;53.264;6.592;2023-03-01T05:21:07;1.05;;;0.95;;
51995;SDS011;38010;53.264;6.592;2023-03-01T05:23:34;1.02;;;0.90;;
51995;SDS011;38010;53.264;6.592;2023-03-01T05:26:01;1.35;;;1.10;;
51995;SDS011;38010;53.264;6.592;2023-03-01T05:28:29;0.95;;;0.90;;
51995;SDS011;38010;53.264;6.592;2023-03-01T05:30:55;1.05;;;0.95;;
51995;SDS011;38010;53.264;6.592;2023-03-01T05:33:21;1.20;;;0.98;;
51995;SDS011;38010;53.264;6.592;2023-03-01T05:35:47;1.27;;;1.10;;
51995;SDS011;38010;53.264;6.592;2023-03-01T05:38:14;1.60;;;1.20;;
51995;SDS011;38010;53.264;6.592;2023-03-01T05:40:44;1.02;;;0.93;;
51995;SDS011;38010;53.264;6.592;2023-03-01T05:43:11;1.23;;;1.10;;
51995;SDS011;38010;53.264;6.592;2023-03-01T05:45:39;1.10;;;0.93;;
51995;SDS011;38010;53.264;6.592;2023-03-01T05:48:05;1.23;;;1.00;;
51995;SDS011;38010;53.264;6.592;2023-03-01T05:50:33;1.25;;;1.00;;
51995;SDS011;38010;53.264;6.592;2023-03-01T05:53:02;0.88;;;0.85;;
51995;SDS011;38010;53.264;6.592;2023-03-01T05:55:31;1.10;;;1.00;;
51995;SDS011;38010;53.264;6.592;2023-03-01T05:57:58;1.00;;;0.90;;
51995;SDS011;38010;53.264;6.592;2023-03-01T06:00:30;1.10;;;1.00;;
51995;SDS011;38010;53.264;6.592;2023-03-01T06:02:57;1.50;;;1.30;;
51995;SDS011;38010;53.264;6.592;2023-03-01T06:05:23;1.15;;;1.00;;
51995;SDS011;38010;53.264;6.592;2023-03-01T06:07:50;1.40;;;1.30;;
51995;SDS011;38010;53.264;6.592;2023-03-01T06:10:16;1.20;;;1.10;;
51995;SDS011;38010;53.264;6.592;2023-03-01T06:12:43;1.42;;;1.20;;
51995;SDS011;38010;53.264;6.592;2023-03-01T06:15:10;1.60;;;1.23;;
51995;SDS011;38010;53.264;6.592;2023-03-01T06:17:38;1.30;;;1.20;;
51995;SDS011;38010;53.264;6.592;2023-03-01T06:20:07;1.55;;;1.20;;
51995;SDS011;38010;53.264;6.592;2023-03-01T06:22:44;1.30;;;1.20;;
51995;SDS011;38010;53.264;6.592;2023-03-01T06:25:11;1.05;;;0.93;;
51995;SDS011;38010;53.264;6.592;2023-03-01T06:27:38;1.58;;;1.40;;
51995;SDS011;38010;53.264;6.592;2023-03-01T06:30:05;1.65;;;1.40;;
51995;SDS011;38010;53.264;6.592;2023-03-01T06:32:32;1.30;;;1.17;;
51995;SDS011;38010;53.264;6.592;2023-03-01T06:34:57;1.25;;;1.15;;
51995;SDS011;38010;53.264;6.592;2023-03-01T06:37:24;1.30;;;1.08;;
51995;SDS011;38010;53.264;6.592;2023-03-01T06:39:52;1.35;;;1.25;;
51995;SDS011;38010;53.264;6.592;2023-03-01T06:42:18;1.50;;;1.30;;
51995;SDS011;38010;53.264;6.592;2023-03-01T06:44:44;1.83;;;1.50;;
51995;SDS011;38010;53.264;6.592;2023-03-01T06:47:10;1.30;;;1.20;;
51995;SDS011;38010;53.264;6.592;2023-03-01T06:49:36;1.50;;;1.38;;
51995;SDS011;38010;53.264;6.592;2023-03-01T06:52:02;1.15;;;1.05;;
51995;SDS011;38010;53.264;6.592;2023-03-01T06:54:28;1.30;;;1.10;;
51995;SDS011;38010;53.264;6.592;2023-03-01T06:56:53;1.27;;;1.17;;
51995;SDS011;38010;53.264;6.592;2023-03-01T06:59:19;1.27;;;1.17;;
51995;SDS011;38010;53.264;6.592;2023-03-01T07:01:45;1.30;;;1.20;;
51995;SDS011;38010;53.264;6.592;2023-03-01T07:04:11;1.33;;;1.23;;
51995;SDS011;38010;53.264;6.592;2023-03-01T07:06:38;1.50;;;1.25;;
51995;SDS011;38010;53.264;6.592;2023-03-01T07:09:04;1.70;;;1.55;;
51995;SDS011;38010;53.264;6.592;2023-03-01T07:11:29;1.75;;;1.40;;
51995;SDS011;38010;53.264;6.592;2023-03-01T07:13:55;1.40;;;1.30;;
51995;SDS011;38010;53.264;6.592;2023-03-01T07:16:21;1.27;;;1.10;;
51995;SDS011;38010;53.264;6.592;2023-03-01T07:18:47;1.48;;;1.23;;
51995;SDS011;38010;53.264;6.592;2023-03-01T07:21:13;1.80;;;1.17;;
51995;SDS011;38010;53.264;6.592;2023-03-01T07:23:40;1.42;;;1.30;;
51995;SDS011;38010;53.264;6.592;2023-03-01T07:26:06;1.85;;;1.63;;
51995;SDS011;38010;53.264;6.592;2023-03-01T07:28:31;1.38;;;1.23;;
51995;SDS011;38010;53.264;6.592;2023-03-01T07:31:03;1.38;;;1.27;;
51995;SDS011;38010;53.264;6.592;2023-03-01T07:33:32;1.55;;;1.45;;
51995;SDS011;38010;53.264;6.592;2023-03-01T07:35:59;1.50;;;1.40;;
51995;SDS011;38010;53.264;6.592;2023-03-01T07:38:26;1.60;;;1.50;;
51995;SDS011;38010;53.264;6.592;2023-03-01T07:40:52;1.55;;;1.45;;
51995;SDS011;38010;53.264;6.592;2023-03-01T07:43:18;1.48;;;1.27;;
51995;SDS011;38010;53.264;6.592;2023-03-01T07:45:45;1.73;;;1.40;;
51995;SDS011;38010;53.264;6.592;2023-03-01T07:48:11;1.40;;;1.17;;
51995;SDS011;38010;53.264;6.592;2023-03-01T07:50:36;1.38;;;1.27;;
51995;SDS011;38010;53.264;6.592;2023-03-01T07:53:02;2.00;;;1.73;;
51995;SDS011;38010;53.264;6.592;2023-03-01T07:55:28;1.40;;;1.30;;
51995;SDS011;38010;53.264;6.592;2023-03-01T07:57:54;1.60;;;1.50;;
51995;SDS011;38010;53.264;6.592;2023-03-01T08:00:20;1.42;;;1.33;;
51995;SDS011;38010;53.264;6.592;2023-03-01T08:02:45;1.52;;;1.17;;
51995;SDS011;38010;53.264;6.592;2023-03-01T08:05:11;1.48;;;1.33;;
51995;SDS011;38010;53.264;6.592;2023-03-01T08:07:37;1.25;;;1.15;;
51995;SDS011;38010;53.264;6.592;2023-03-01T08:10:03;1.25;;;1.15;;
51995;SDS011;38010;53.264;6.592;2023-03-01T08:12:29;1.60;;;1.45;;
51995;SDS011;38010;53.264;6.592;2023-03-01T08:14:55;1.42;;;1.33;;
51995;SDS011;38010;53.264;6.592;2023-03-01T08:17:22;1.38;;;1.05;;
51995;SDS011;38010;53.264;6.592;2023-03-01T08:19:48;1.55;;;1.45;;
51995;SDS011;38010;53.264;6.592;2023-03-01T08:22:13;1.35;;;1.25;;
51995;SDS011;38010;53.264;6.592;2023-03-01T08:24:39;1.38;;;1.27;;
51995;SDS011;38010;53.264;6.592;2023-03-01T08:27:05;1.55;;;1.45;;
51995;SDS011;38010;53.264;6.592;2023-03-01T08:29:31;1.38;;;1.20;;
51995;SDS011;38010;53.264;6.592;2023-03-01T08:31:57;1.55;;;1.40;;
51995;SDS011;38010;53.264;6.592;2023-03-01T08:34:23;1.35;;;1.25;;
51995;SDS011;38010;53.264;6.592;2023-03-01T08:36:49;1.60;;;1.50;;
51995;SDS011;38010;53.264;6.592;2023-03-01T08:39:17;1.30;;;1.20;;
51995;SDS011;38010;53.264;6.592;2023-03-01T08:41:45;1.25;;;1.15;;
51995;SDS011;38010;53.264;6.592;2023-03-01T08:44:12;1.67;;;1.52;;
51995;SDS011;38010;53.264;6.592;2023-03-01T08:46:39;1.60;;;1.50;;
51995;SDS011;38010;53.264;6.592;2023-03-01T08:49:11;1.98;;;1.65;;
51995;SDS011;38010;53.264;6.592;2023-03-01T08:51:39;1.53;;;1.30;;
51995;SDS011;38010;53.264;6.592;2023-03-01T08:54:10;1.75;;;1.60;;
51995;SDS011;38010;53.264;6.592;2023-03-01T08:56:39;1.40;;;1.30;;
51995;SDS011;38010;53.264;6.592;2023-03-01T08:59:05;1.92;;;1.70;;
51995;SDS011;38010;53.264;6.592;2023-03-01T09:01:31;1.88;;;1.60;;
51995;SDS011;38010;53.264;6.592;2023-03-01T09:03:57;1.98;;;1.58;;
51995;SDS011;38010;53.264;6.592;2023-03-01T09:06:23;1.73;;;1.60;;
51995;SDS011;38010;53.264;6.592;2023-03-01T09:08:49;1.60;;;1.50;;
51995;SDS011;38010;53.264;6.592;2023-03-01T09:11:18;1.90;;;1.67;;
51995;SDS011;38010;53.264;6.592;2023-03-01T09:13:46;2.20;;;2.00;;
51995;SDS011;38010;53.264;6.592;2023-03-01T09:16:13;2.10;;;1.90;;
51995;SDS011;38010;53.264;6.592;2023-03-01T09:18:40;2.38;;;2.10;;
51995;SDS011;38010;53.264;6.592;2023-03-01T09:21:07;1.88;;;1.60;;
51995;SDS011;38010;53.264;6.592;2023-03-01T09:23:38;1.90;;;1.70;;
51995;SDS011;38010;53.264;6.592;2023-03-01T09:26:06;2.22;;;2.03;;
51995;SDS011;38010;53.264;6.592;2023-03-01T09:28:36;2.50;;;1.98;;
51995;SDS011;38010;53.264;6.592;2023-03-01T09:31:03;2.25;;;2.05;;
51995;SDS011;38010;53.264;6.592;2023-03-01T09:33:30;1.88;;;1.65;;
51995;SDS011;38010;53.264;6.592;2023-03-01T09:35:57;2.10;;;1.90;;
51995;SDS011;38010;53.264;6.592;2023-03-01T09:38:24;1.92;;;1.70;;
51995;SDS011;38010;53.264;6.592;2023-03-01T09:40:50;2.28;;;2.08;;
51995;SDS011;38010;53.264;6.592;2023-03-01T09:46:12;1.90;;;1.70;;
51995;SDS011;38010;53.264;6.592;2023-03-01T09:48:51;2.63;;;2.38;;
51995;SDS011;38010;53.264;6.592;2023-03-01T09:51:29;2.15;;;1.90;;
51995;SDS011;38010;53.264;6.592;2023-03-01T09:54:03;2.55;;;2.30;;
51995;SDS011;38010;53.264;6.592;2023-03-01T10:02:24;2.65;;;2.25;;
51995;SDS011;38010;53.264;6.592;2023-03-01T10:13:57;2.55;;;2.35;;
51995;SDS011;38010;53.264;6.592;2023-03-01T10:16:34;2.30;;;2.10;;
51995;SDS011;38010;53.264;6.592;2023-03-01T10:19:21;3.60;;;2.35;;
51995;SDS011;38010;53.264;6.592;2023-03-01T10:22:03;2.65;;;2.33;;
51995;SDS011;38010;53.264;6.592;2023-03-01T10:24:46;2.40;;;2.20;;
51995;SDS011;38010;53.264;6.592;2023-03-01T10:29:57;2.63;;;2.30;;
51995;SDS011;38010;53.264;6.592;2023-03-01T10:32:36;3.35;;;2.40;;
51995;SDS011;38010;53.264;6.592;2023-03-01T10:35:14;2.70;;;2.47;;
51995;SDS011;38010;53.264;6.592;2023-03-01T10:37:58;2.72;;;2.42;;
51995;SDS011;38010;53.264;6.592;2023-03-01T10:40:29;2.78;;;2.47;;
51995;SDS011;38010;53.264;6.592;2023-03-01T10:42:57;3.28;;;2.67;;
51995;SDS011;38010;53.264;6.592;2023-03-01T10:45:31;3.15;;;2.50;;
51995;SDS011;38010;53.264;6.592;2023-03-01T10:50:33;2.95;;;2.55;;
51995;SDS011;38010;53.264;6.592;2023-03-01T10:53:03;2.80;;;2.50;;
51995;SDS011;38010;53.264;6.592;2023-03-01T10:55:36;2.85;;;2.30;;
51995;SDS011;38010;53.264;6.592;2023-03-01T11:00:34;2.53;;;2.33;;
51995;SDS011;38010;53.264;6.592;2023-03-01T11:03:27;2.33;;;2.10;;
51995;SDS011;38010;53.264;6.592;2023-03-01T11:08:47;3.97;;;2.50;;
51995;SDS011;38010;53.264;6.592;2023-03-01T11:13:57;2.47;;;2.13;;
51995;SDS011;38010;53.264;6.592;2023-03-01T11:16:31;2.58;;;2.38;;
51995;SDS011;38010;53.264;6.592;2023-03-01T11:21:38;2.85;;;2.55;;
51995;SDS011;38010;53.264;6.592;2023-03-01T11:30:07;2.17;;;1.98;;
51995;SDS011;38010;53.264;6.592;2023-03-01T11:35:27;2.25;;;2.05;;
51995;SDS011;38010;53.264;6.592;2023-03-01T11:40:40;2.20;;;1.98;;
51995;SDS011;38010;53.264;6.592;2023-03-01T11:48:31;2.40;;;2.20;;
51995;SDS011;38010;53.264;6.592;2023-03-01T11:51:05;2.10;;;1.90;;
51995;SDS011;38010;53.264;6.592;2023-03-01T11:56:35;2.72;;;1.83;;
51995;SDS011;38010;53.264;6.592;2023-03-01T12:12:56;1.60;;;1.42;;
51995;SDS011;38010;53.264;6.592;2023-03-01T12:20:57;1.70;;;1.60;;
51995;SDS011;38010;53.264;6.592;2023-03-01T12:27:00;2.28;;;2.05;;
51995;SDS011;38010;53.264;6.592;2023-03-01T12:32:22;2.05;;;1.80;;
51995;SDS011;38010;53.264;6.592;2023-03-01T12:35:16;2.60;;;2.40;;
51995;SDS011;38010;53.264;6.592;2023-03-01T12:43:36;1.88;;;1.58;;
51995;SDS011;38010;53.264;6.592;2023-03-01T12:49:01;1.48;;;1.38;;
51995;SDS011;38010;53.264;6.592;2023-03-01T12:51:34;1.83;;;1.50;;
51995;SDS011;38010;53.264;6.592;2023-03-01T12:54:05;1.30;;;1.15;;
51995;SDS011;38010;53.264;6.592;2023-03-01T12:56:47;1.80;;;1.65;;
51995;SDS011;38010;53.264;6.592;2023-03-01T13:04:51;1.90;;;1.67;;
51995;SDS011;38010;53.264;6.592;2023-03-01T13:07:41;1.95;;;1.63;;
51995;SDS011;38010;53.264;6.592;2023-03-01T13:10:30;1.80;;;1.65;;
51995;SDS011;38010;53.264;6.592;2023-03-01T13:15:34;1.38;;;1.23;;
51995;SDS011;38010;53.264;6.592;2023-03-01T13:20:48;2.30;;;1.60;;
51995;SDS011;38010;53.264;6.592;2023-03-01T13:31:07;1.38;;;1.27;;
51995;SDS011;38010;53.264;6.592;2023-03-01T13:33:44;1.52;;;1.30;;
51995;SDS011;38010;53.264;6.592;2023-03-01T13:36:11;2.00;;;1.60;;
51995;SDS011;38010;53.264;6.592;2023-03-01T13:49:26;2.28;;;1.98;;
51995;SDS011;38010;53.264;6.592;2023-03-01T13:51:54;2.28;;;1.80;;
51995;SDS011;38010;53.264;6.592;2023-03-01T13:54:25;1.90;;;1.70;;
51995;SDS011;38010;53.264;6.592;2023-03-01T13:56:55;1.42;;;1.33;;
51995;SDS011;38010;53.264;6.592;2023-03-01T13:59:22;2.78;;;1.80;;
51995;SDS011;38010;53.264;6.592;2023-03-01T14:01:54;2.15;;;1.58;;
51995;SDS011;38010;53.264;6.592;2023-03-01T14:04:23;1.88;;;1.40;;
51995;SDS011;38010;53.264;6.592;2023-03-01T14:06:52;2.15;;;1.38;;
51995;SDS011;38010;53.264;6.592;2023-03-01T14:09:39;1.60;;;1.40;;
51995;SDS011;38010;53.264;6.592;2023-03-01T14:20:47;1.60;;;1.45;;
51995;SDS011;38010;53.264;6.592;2023-03-01T14:23:20;1.77;;;1.67;;
51995;SDS011;38010;53.264;6.592;2023-03-01T14:25:51;2.13;;;1.60;;
51995;SDS011;38010;53.264;6.592;2023-03-01T14:28:26;2.30;;;1.55;;
51995;SDS011;38010;53.264;6.592;2023-03-01T14:30:54;1.70;;;1.60;;
51995;SDS011;38010;53.264;6.592;2023-03-01T14:33:26;1.60;;;1.35;;
51995;SDS011;38010;53.264;6.592;2023-03-01T14:35:53;1.98;;;1.45;;
51995;SDS011;38010;53.264;6.592;2023-03-01T14:38:29;2.00;;;1.50;;
51995;SDS011;38010;53.264;6.592;2023-03-01T14:41:05;1.20;;;1.10;;
51995;SDS011;38010;53.264;6.592;2023-03-01T14:43:36;1.58;;;1.48;;
51995;SDS011;38010;53.264;6.592;2023-03-01T14:46:04;1.48;;;1.38;;
51995;SDS011;38010;53.264;6.592;2023-03-01T14:48:29;1.40;;;1.20;;
51995;SDS011;38010;53.264;6.592;2023-03-01T14:50:57;1.58;;;1.48;;
51995;SDS011;38010;53.264;6.592;2023-03-01T14:53:25;1.75;;;1.40;;
51995;SDS011;38010;53.264;6.592;2023-03-01T14:55:54;1.95;;;1.50;;
51995;SDS011;38010;53.264;6.592;2023-03-01T14:58:23;1.65;;;1.50;;
51995;SDS011;38010;53.264;6.592;2023-03-01T15:00:51;1.50;;;1.40;;
51995;SDS011;38010;53.264;6.592;2023-03-01T15:03:23;1.85;;;1.55;;
51995;SDS011;38010;53.264;6.592;2023-03-01T15:05:50;1.35;;;1.25;;
51995;SDS011;38010;53.264;6.592;2023-03-01T15:08:18;1.70;;;1.40;;
51995;SDS011;38010;53.264;6.592;2023-03-01T15:10:56;1.30;;;1.20;;
51995;SDS011;38010;53.264;6.592;2023-03-01T15:13:34;1.75;;;1.50;;
51995;SDS011;38010;53.264;6.592;2023-03-01T15:16:10;1.58;;;1.30;;
51995;SDS011;38010;53.264;6.592;2023-03-01T15:18:37;1.58;;;1.35;;
51995;SDS011;38010;53.264;6.592;2023-03-01T15:21:16;1.55;;;1.30;;
51995;SDS011;38010;53.264;6.592;2023-03-01T15:23:49;1.25;;;1.15;;
51995;SDS011;38010;53.264;6.592;2023-03-01T15:26:28;1.63;;;1.40;;
51995;SDS011;38010;53.264;6.592;2023-03-01T15:29:00;1.50;;;1.40;;
51995;SDS011;38010;53.264;6.592;2023-03-01T15:31:27;1.38;;;1.20;;
51995;SDS011;38010;53.264;6.592;2023-03-01T15:34:10;2.08;;;1.40;;
51995;SDS011;38010;53.264;6.592;2023-03-01T15:36:50;1.83;;;1.50;;
51995;SDS011;38010;53.264;6.592;2023-03-01T15:42:06;1.42;;;1.33;;
51995;SDS011;38010;53.264;6.592;2023-03-01T15:44:35;1.70;;;1.25;;
51995;SDS011;38010;53.264;6.592;2023-03-01T15:47:05;1.08;;;0.98;;
51995;SDS011;38010;53.264;6.592;2023-03-01T15:50:04;1.70;;;1.48;;
51995;SDS011;38010;53.264;6.592;2023-03-01T15:52:34;1.80;;;1.30;;
51995;SDS011;38010;53.264;6.592;2023-03-01T15:55:07;1.75;;;1.40;;
51995;SDS011;38010;53.264;6.592;2023-03-01T15:57:43;1.50;;;1.40;;
51995;SDS011;38010;53.264;6.592;2023-03-01T16:00:10;1.98;;;1.60;;
51995;SDS011;38010;53.264;6.592;2023-03-01T16:02:38;1.58;;;1.40;;
51995;SDS011;38010;53.264;6.592;2023-03-01T16:05:05;2.38;;;1.40;;
51995;SDS011;38010;53.264;6.592;2023-03-01T16:07:40;1.42;;;1.33;;
51995;SDS011;38010;53.264;6.592;2023-03-01T16:10:05;2.10;;;1.50;;
51995;SDS011;38010;53.264;6.592;2023-03-01T16:12:31;1.95;;;1.33;;
51995;SDS011;38010;53.264;6.592;2023-03-01T16:14:57;2.13;;;1.50;;
51995;SDS011;38010;53.264;6.592;2023-03-01T16:17:23;1.40;;;1.30;;
51995;SDS011;38010;53.264;6.592;2023-03-01T16:19:49;1.55;;;1.45;;
51995;SDS011;38010;53.264;6.592;2023-03-01T16:22:14;1.33;;;1.23;;
51995;SDS011;38010;53.264;6.592;2023-03-01T16:24:40;2.10;;;1.50;;
51995;SDS011;38010;53.264;6.592;2023-03-01T16:27:06;1.52;;;1.30;;
51995;SDS011;38010;53.264;6.592;2023-03-01T16:29:32;1.98;;;1.60;;
51995;SDS011;38010;53.264;6.592;2023-03-01T16:32:01;1.50;;;1.40;;
51995;SDS011;38010;53.264;6.592;2023-03-01T16:34:27;2.60;;;1.70;;
51995;SDS011;38010;53.264;6.592;2023-03-01T16:36:53;1.88;;;1.52;;
51995;SDS011;38010;53.264;6.592;2023-03-01T16:39:19;1.70;;;1.60;;
51995;SDS011;38010;53.264;6.592;2023-03-01T16:41:44;2.38;;;1.30;;
51995;SDS011;38010;53.264;6.592;2023-03-01T16:44:10;2.03;;;1.60;;
51995;SDS011;38010;53.264;6.592;2023-03-01T16:46:36;1.42;;;1.33;;
51995;SDS011;38010;53.264;6.592;2023-03-01T16:49:01;1.25;;;1.15;;
51995;SDS011;38010;53.264;6.592;2023-03-01T16:51:28;1.50;;;1.30;;
51995;SDS011;38010;53.264;6.592;2023-03-01T16:53:54;1.77;;;1.25;;
51995;SDS011;38010;53.264;6.592;2023-03-01T16:56:20;2.00;;;1.10;;
51995;SDS011;38010;53.264;6.592;2023-03-01T16:58:46;1.30;;;1.20;;
51995;SDS011;38010;53.264;6.592;2023-03-01T17:01:14;1.25;;;1.10;;
51995;SDS011;38010;53.264;6.592;2023-03-01T17:03:41;1.52;;;1.08;;
51995;SDS011;38010;53.264;6.592;2023-03-01T17:06:09;1.33;;;1.17;;
51995;SDS011;38010;53.264;6.592;2023-03-01T17:08:36;1.52;;;1.17;;
51995;SDS011;38010;53.264;6.592;2023-03-01T17:11:06;1.20;;;1.10;;
51995;SDS011;38010;53.264;6.592;2023-03-01T17:13:34;1.00;;;1.00;;
51995;SDS011;38010;53.264;6.592;2023-03-01T17:16:02;1.58;;;0.98;;
51995;SDS011;38010;53.264;6.592;2023-03-01T17:18:29;1.60;;;1.10;;
51995;SDS011;38010;53.264;6.592;2023-03-01T17:20:55;1.30;;;1.10;;
51995;SDS011;38010;53.264;6.592;2023-03-01T17:23:21;1.15;;;1.05;;
51995;SDS011;38010;53.264;6.592;2023-03-01T17:25:46;1.50;;;1.05;;
51995;SDS011;38010;53.264;6.592;2023-03-01T17:28:12;1.13;;;1.00;;
51995;SDS011;38010;53.264;6.592;2023-03-01T17:30:42;1.08;;;1.00;;